Time;durP1;ratioP1;P1;durP2;ratioP2;P2;SDS_P1;SDS_P2;PMS_P1;PMS_P2;Temp;Humidity;BMP_temperature;BMP_pressure;BME280_temperature;BME280_humidity;BME280_pressure;Samples;Min_cycle;Max_cycle;Signal;HPM_P1;HPM_P2
2021/07/06 00:01:58;;;;;;;0.00;0.00;;;17.80;99.90;;;;;;5052218;28;20025;-74
2021/07/06 00:04:24;;;;;;;0.10;0.10;;;18.00;99.90;;;;;;5034363;28;20025;-74
2021/07/06 00:06:49;;;;;;;0.10;0.10;;;17.90;99.90;;;;;;5052208;28;20021;-74
2021/07/06 00:09:15;;;;;;;0.10;0.10;;;17.70;99.90;;;;;;5052088;28;20025;-74
2021/07/06 00:11:41;;;;;;;0.08;0.08;;;17.60;99.90;;;;;;5051836;28;20033;-74
2021/07/06 00:14:07;;;;;;;0.10;0.10;;;17.60;99.90;;;;;;5034222;28;20025;-74
2021/07/06 00:16:33;;;;;;;0.10;0.10;;;17.70;99.90;;;;;;5051982;28;20052;-74
2021/07/06 00:18:59;;;;;;;0.10;0.10;;;17.80;99.90;;;;;;5051900;28;20048;-74
2021/07/06 00:21:25;;;;;;;0.10;0.10;;;17.90;99.90;;;;;;5051891;28;20024;-74
2021/07/06 00:23:52;;;;;;;0.10;0.10;;;17.90;99.90;;;;;;5051887;28;20100;-74
2021/07/06 00:26:18;;;;;;;0.10;0.10;;;17.80;99.90;;;;;;5033945;28;20464;-74
2021/07/06 00:28:44;;;;;;;0.10;0.10;;;17.70;99.90;;;;;;5051459;28;20108;-74
2021/07/06 00:31:11;;;;;;;0.10;0.10;;;17.70;99.90;;;;;;5033828;28;20025;-74
2021/07/06 00:33:36;;;;;;;0.10;0.10;;;17.60;99.90;;;;;;5034066;28;20675;-74
2021/07/06 00:36:02;;;;;;;0.10;0.10;;;17.50;99.90;;;;;;5051870;28;20052;-74
2021/07/06 00:38:29;;;;;;;0.10;0.10;;;17.50;99.90;;;;;;5051621;28;20020;-74
2021/07/06 00:40:57;;;;;;;0.15;0.15;;;17.10;99.90;;;;;;5017450;28;20034;-74
2021/07/06 00:43:24;;;;;;;0.10;0.10;;;17.10;99.90;;;;;;5033737;28;20032;-74
2021/07/06 00:45:53;;;;;;;0.10;0.10;;;16.80;99.90;;;;;;5051739;28;20017;-74
2021/07/06 00:48:19;;;;;;;0.10;0.10;;;16.90;99.90;;;;;;5017230;28;20111;-74
2021/07/06 00:50:45;;;;;;;0.13;0.13;;;17.00;99.90;;;;;;5033840;28;20079;-74
2021/07/06 00:53:11;;;;;;;0.10;0.10;;;17.00;99.90;;;;;;5051437;28;20076;-74
2021/07/06 00:55:36;;;;;;;0.10;0.10;;;16.80;99.90;;;;;;5033924;28;20021;-74
2021/07/06 00:58:02;;;;;;;0.10;0.10;;;16.80;99.90;;;;;;5033717;28;20063;-74
2021/07/06 01:00:28;;;;;;;0.20;0.20;;;16.80;99.90;;;;;;5051726;28;20021;-74
2021/07/06 01:02:54;;;;;;;0.10;0.10;;;16.80;99.90;;;;;;5033627;28;20052;-74
2021/07/06 01:05:24;;;;;;;0.20;0.20;;;16.90;99.90;;;;;;5017295;28;20025;-74
2021/07/06 01:07:50;;;;;;;0.10;0.10;;;17.00;99.90;;;;;;5033411;28;20025;-74
2021/07/06 01:10:17;;;;;;;0.10;0.10;;;17.00;99.90;;;;;;5051902;28;20500;-74
2021/07/06 01:12:44;;;;;;;0.10;0.10;;;17.00;99.90;;;;;;5051191;28;20029;-74
2021/07/06 01:15:14;;;;;;;0.10;0.10;;;17.00;99.90;;;;;;5051461;28;20031;-74
2021/07/06 01:17:43;;;;;;;0.10;0.10;;;17.10;99.90;;;;;;5051374;28;20384;-74
2021/07/06 01:20:15;;;;;;;0.10;0.10;;;17.10;99.90;;;;;;5033563;28;20380;-74
2021/07/06 01:22:41;;;;;;;;;;;17.10;99.90;;;;;;5051833;28;20032;-74
2021/07/06 01:25:09;;;;;;;0.10;0.10;;;17.00;99.90;;;;;;5051776;28;19931;-74
2021/07/06 01:27:35;;;;;;;0.15;0.15;;;17.00;99.90;;;;;;5033365;28;20035;-74
2021/07/06 01:30:02;;;;;;;0.10;0.10;;;17.00;99.90;;;;;;5051391;28;20025;-74
2021/07/06 01:32:28;;;;;;;0.10;0.10;;;16.90;99.90;;;;;;5033164;28;20060;-74
2021/07/06 01:34:54;;;;;;;0.10;0.10;;;17.00;99.90;;;;;;5017019;28;20058;-74
2021/07/06 01:37:20;;;;;;;0.10;0.10;;;17.10;99.90;;;;;;5033372;28;20468;-74
2021/07/06 01:39:48;;;;;;;0.10;0.10;;;17.20;99.90;;;;;;5051218;28;20074;-74
2021/07/06 01:42:21;;;;;;;0.10;0.10;;;17.20;99.90;;;;;;5053600;28;20060;-74
2021/07/06 01:44:47;;;;;;;0.13;0.13;;;17.10;99.90;;;;;;5054874;28;20074;-74
2021/07/06 01:47:13;;;;;;;0.10;0.10;;;17.10;99.90;;;;;;5037000;28;20507;-74
2021/07/06 01:49:40;;;;;;;0.10;0.10;;;17.10;99.90;;;;;;5054789;28;20033;-74
2021/07/06 01:52:06;;;;;;;0.20;0.20;;;17.10;99.90;;;;;;5036832;28;20369;-74
2021/07/06 01:54:32;;;;;;;0.10;0.10;;;17.10;99.90;;;;;;5054692;28;20024;-74
2021/07/06 01:56:57;;;;;;;0.10;0.10;;;17.00;99.90;;;;;;5054624;28;20025;-74
2021/07/06 01:59:23;;;;;;;0.10;0.10;;;17.20;99.90;;;;;;5054386;28;20017;-74
2021/07/06 02:01:50;;;;;;;0.10;0.10;;;17.20;99.90;;;;;;5054704;28;20029;-74
2021/07/06 02:04:16;;;;;;;0.20;0.20;;;17.30;99.90;;;;;;5054423;28;20028;-74
2021/07/06 02:06:43;;;;;;;0.10;0.10;;;17.20;99.90;;;;;;5036742;28;20024;-74
2021/07/06 02:09:09;;;;;;;0.10;0.10;;;17.20;99.90;;;;;;5054600;28;20564;-74
2021/07/06 02:11:35;;;;;;;0.10;0.10;;;17.20;99.90;;;;;;5054366;28;20059;-74
2021/07/06 02:14:03;;;;;;;0.28;0.28;;;17.20;99.90;;;;;;5055068;28;20025;-74
2021/07/06 02:16:28;;;;;;;0.13;0.13;;;17.20;99.90;;;;;;5037160;28;20392;-74
2021/07/06 02:18:54;;;;;;;0.20;0.20;;;17.20;99.90;;;;;;5054986;28;20028;-73
2021/07/06 02:21:21;;;;;;;0.10;0.10;;;17.00;99.90;;;;;;5036789;28;20469;-73
2021/07/06 02:23:48;;;;;;;0.10;0.10;;;16.90;99.90;;;;;;5054609;28;20028;-75
2021/07/06 02:26:14;;;;;;;0.10;0.10;;;17.00;99.90;;;;;;5054630;28;20025;-75
2021/07/06 02:28:40;;;;;;;0.15;0.15;;;17.10;99.90;;;;;;5036283;28;20427;-75
2021/07/06 02:31:06;;;;;;;1.30;0.73;;;17.10;99.90;;;;;;5054133;28;20017;-76
2021/07/06 02:33:34;;;;;;;0.10;0.10;;;17.00;99.90;;;;;;5019744;28;20392;-75
2021/07/06 02:36:05;;;;;;;0.10;0.10;;;16.90;99.90;;;;;;5054033;28;20107;-74
2021/07/06 02:38:31;;;;;;;0.10;0.10;;;16.90;99.90;;;;;;5035882;28;20085;-74
2021/07/06 02:40:57;;;;;;;0.32;0.32;;;16.80;99.90;;;;;;5053987;28;20013;-75
2021/07/06 02:43:23;;;;;;;0.22;0.22;;;16.80;99.90;;;;;;5053912;28;20025;-75
2021/07/06 02:45:49;;;;;;;0.15;0.15;;;16.80;99.90;;;;;;5036107;28;20035;-75
2021/07/06 02:48:15;;;;;;;0.10;0.10;;;16.90;99.90;;;;;;5053569;28;20542;-75
2021/07/06 02:50:42;;;;;;;0.10;0.10;;;16.80;99.90;;;;;;5019391;28;20035;-75
2021/07/06 02:53:10;;;;;;;0.10;0.10;;;16.80;99.90;;;;;;5035532;28;20029;-75
2021/07/06 02:55:36;;;;;;;0.10;0.10;;;16.80;99.90;;;;;;5053654;28;20019;-76
2021/07/06 02:58:02;;;;;;;0.10;0.10;;;16.80;99.90;;;;;;5053469;28;20434;-76
2021/07/06 03:00:30;;;;;;;0.10;0.10;;;16.80;99.90;;;;;;5019276;28;20094;-76
2021/07/06 03:03:02;;;;;;;0.30;0.30;;;16.90;99.90;;;;;;5035811;28;20040;-75
2021/07/06 03:05:29;;;;;;;0.10;0.10;;;16.90;99.90;;;;;;5053542;28;20029;-76
2021/07/06 03:07:57;;;;;;;0.10;0.10;;;17.00;99.90;;;;;;5053315;28;20029;-75
2021/07/06 03:10:32;;;;;;;0.10;0.10;;;17.20;99.90;;;;;;5053393;28;20024;-75
2021/07/06 03:12:59;;;;;;;0.20;0.20;;;17.30;99.90;;;;;;5035451;28;20608;-76
2021/07/06 03:15:27;;;;;;;0.10;0.10;;;17.30;99.90;;;;;;5053362;28;20503;-75
2021/07/06 03:17:53;;;;;;;0.10;0.10;;;17.30;99.90;;;;;;5053243;28;20021;-75
2021/07/06 03:20:21;;;;;;;0.10;0.10;;;17.30;99.90;;;;;;5035536;28;20029;-75
2021/07/06 03:22:47;;;;;;;0.10;0.10;;;17.30;99.90;;;;;;5053211;28;20021;-75
2021/07/06 03:25:17;;;;;;;0.10;0.10;;;17.40;99.90;;;;;;5018985;28;20505;-75
2021/07/06 03:27:43;;;;;;;0.10;0.10;;;17.30;99.90;;;;;;5035012;28;20545;-75
2021/07/06 03:30:15;;;;;;;0.10;0.10;;;17.30;99.90;;;;;;5035267;28;20074;-75
2021/07/06 03:32:41;;;;;;;0.10;0.10;;;17.20;99.90;;;;;;5052862;28;20029;-75
2021/07/06 03:35:08;;;;;;;0.10;0.10;;;17.10;99.90;;;;;;5053086;28;20027;-76
2021/07/06 03:37:34;;;;;;;0.10;0.10;;;17.10;99.90;;;;;;5052735;28;20507;-75
2021/07/06 03:40:00;;;;;;;0.15;0.15;;;17.00;99.90;;;;;;5034936;28;20090;-75
2021/07/06 03:42:26;;;;;;;0.10;0.10;;;17.00;99.90;;;;;;5034819;28;20037;-76
2021/07/06 03:44:52;;;;;;;0.10;0.10;;;17.00;99.90;;;;;;5052859;28;20024;-76
2021/07/06 03:47:17;;;;;;;0.20;0.20;;;17.00;99.90;;;;;;5052591;28;20099;-76
2021/07/06 03:50:02;;;;;;;0.20;0.20;;;17.00;99.90;;;;;;5066865;23;20024;-94
2021/07/06 03:53:04;;;;;;;0.10;0.10;;;16.80;99.90;;;;;;5003353;28;20044;-94
2021/07/06 03:55:45;;;;;;;;;;;;;;;;;;;;;
2021/07/06 03:58:30;;;;;;;0.10;0.10;;;16.80;99.90;;;;;;5020636;28;20022;-94
2021/07/06 04:01:41;;;;;;;0.10;0.10;;;17.00;99.90;;;;;;5005810;28;20026;-94
2021/07/06 04:04:33;;;;;;;0.10;0.10;;;17.10;99.90;;;;;;4994984;28;20025;-94
2021/07/06 04:07:12;;;;;;;0.10;0.10;;;17.20;99.90;;;;;;5004154;28;20038;-94
2021/07/06 04:09:44;;;;;;;0.10;0.10;;;17.30;99.90;;;;;;5004475;28;20017;-94
2021/07/06 04:12:16;;;;;;;0.10;0.10;;;17.40;99.90;;;;;;5018924;28;20038;-94
2021/07/06 04:14:52;;;;;;;0.10;0.10;;;17.40;99.90;;;;;;5048738;23;20052;-77
2021/07/06 04:17:18;;;;;;;0.10;0.10;;;17.50;99.90;;;;;;5051953;28;20021;-76
2021/07/06 04:19:43;;;;;;;0.10;0.10;;;17.40;99.90;;;;;;5034035;28;20024;-77
2021/07/06 04:22:09;;;;;;;0.10;0.10;;;17.20;99.90;;;;;;5033929;28;20029;-76
2021/07/06 04:24:35;;;;;;;0.30;0.30;;;17.30;99.90;;;;;;5034242;28;20052;-76
2021/07/06 04:27:01;;;;;;;0.10;0.10;;;17.40;99.90;;;;;;5033962;28;20109;-77
2021/07/06 04:29:28;;;;;;;0.10;0.10;;;17.50;99.90;;;;;;5051908;28;20049;-77
2021/07/06 04:31:54;;;;;;;0.20;0.20;;;17.70;99.90;;;;;;5051784;28;20036;-79
2021/07/06 04:34:21;;;;;;;0.10;0.10;;;17.80;99.90;;;;;;5051872;28;20029;-77
2021/07/06 04:36:47;;;;;;;0.10;0.10;;;17.90;99.90;;;;;;5034092;28;20028;-77
2021/07/06 04:39:12;;;;;;;0.10;0.10;;;18.00;99.90;;;;;;5051654;28;20156;-77
2021/07/06 04:41:38;;;;;;;0.10;0.10;;;18.10;99.90;;;;;;5051841;28;20028;-77
2021/07/06 04:44:04;;;;;;;0.10;0.10;;;18.20;99.90;;;;;;5033953;28;20024;-77
2021/07/06 04:46:30;;;;;;;0.10;0.10;;;18.30;99.90;;;;;;5051897;28;20458;-78
2021/07/06 04:48:56;;;;;;;0.10;0.10;;;18.40;99.90;;;;;;5017235;28;20029;-77
2021/07/06 04:51:21;;;;;;;0.10;0.10;;;18.40;99.90;;;;;;5034031;28;20031;-77
2021/07/06 04:53:47;;;;;;;0.10;0.10;;;18.50;99.90;;;;;;5033333;28;20037;-77
2021/07/06 04:56:13;;;;;;;0.10;0.10;;;18.60;99.90;;;;;;5051767;28;20029;-77
2021/07/06 04:58:39;;;;;;;0.10;0.10;;;18.70;99.90;;;;;;5033516;28;20032;-76
2021/07/06 05:01:07;;;;;;;0.10;0.10;;;18.90;99.90;;;;;;5051644;28;20032;-77
2021/07/06 05:03:33;;;;;;;0.10;0.10;;;18.80;99.90;;;;;;5033748;28;20400;-77
2021/07/06 05:05:59;;;;;;;0.03;0.03;;;18.80;99.90;;;;;;5033582;28;20047;-78
2021/07/06 05:08:26;;;;;;;0.10;0.10;;;18.90;99.90;;;;;;5051336;28;20021;-76
2021/07/06 05:10:52;;;;;;;0.10;0.10;;;19.00;99.90;;;;;;5017318;28;20057;-77
2021/07/06 05:13:18;;;;;;;0.10;0.10;;;18.90;99.90;;;;;;5033565;28;20117;-77
2021/07/06 05:15:45;;;;;;;0.10;0.10;;;19.10;99.90;;;;;;5033804;28;20017;-77
2021/07/06 05:18:11;;;;;;;0.10;0.10;;;19.20;99.90;;;;;;5020733;28;20078;-77
2021/07/06 05:20:37;;;;;;;0.10;0.10;;;19.30;99.90;;;;;;5037386;28;20013;-77
2021/07/06 05:23:03;;;;;;;0.10;0.10;;;19.40;99.90;;;;;;5054821;28;20032;-77
2021/07/06 05:25:29;;;;;;;0.10;0.10;;;19.60;99.90;;;;;;5055539;28;20100;-77
2021/07/06 05:27:55;;;;;;;0.10;0.10;;;19.50;99.90;;;;;;5037082;28;20032;-76
2021/07/06 05:30:21;;;;;;;0.05;0.05;;;19.50;99.90;;;;;;5037260;28;20040;-77
2021/07/06 05:32:47;;;;;;;0.30;0.30;;;19.60;99.90;;;;;;5055135;28;20052;-76
2021/07/06 05:35:13;;;;;;;0.13;0.13;;;19.60;99.90;;;;;;5055150;28;20029;-77
2021/07/06 05:37:40;;;;;;;0.10;0.10;;;19.70;99.90;;;;;;5020625;28;20385;-77
2021/07/06 05:40:10;;;;;;;0.10;0.10;;;19.80;99.90;;;;;;5037372;28;20431;-76
2021/07/06 05:42:37;;;;;;;0.10;0.10;;;19.80;99.90;;;;;;5037074;28;20488;-77
2021/07/06 05:45:05;;;;;;;0.10;0.10;;;19.80;99.90;;;;;;5020777;28;20025;-78
2021/07/06 05:47:34;;;;;;;0.10;0.10;;;19.80;99.90;;;;;;5054457;28;20032;-77
2021/07/06 05:50:00;;;;;;;0.10;0.10;;;19.80;99.90;;;;;;5036871;28;20025;-77
2021/07/06 05:52:27;;;;;;;0.10;0.10;;;19.90;99.90;;;;;;5036608;28;20036;-77
2021/07/06 05:54:54;;;;;;;0.10;0.10;;;19.90;99.90;;;;;;5037013;28;20025;-77
2021/07/06 05:57:29;;;;;;;0.10;0.10;;;20.00;99.90;;;;;;5054642;28;20193;-77
2021/07/06 05:59:59;;;;;;;0.10;0.10;;;20.20;99.90;;;;;;5036642;28;20021;-77
2021/07/06 06:02:24;;;;;;;0.00;0.00;;;20.30;99.90;;;;;;5020557;28;20028;-77
2021/07/06 06:04:50;;;;;;;0.00;0.00;;;20.40;99.90;;;;;;5037031;28;20032;-77
2021/07/06 06:07:16;;;;;;;0.10;0.10;;;20.50;99.90;;;;;;5054863;28;20025;-77
2021/07/06 06:09:42;;;;;;;0.10;0.10;;;20.60;99.90;;;;;;5054482;28;20037;-77
2021/07/06 06:12:09;;;;;;;0.10;0.10;;;20.80;99.90;;;;;;5020499;28;20084;-77
2021/07/06 06:14:39;;;;;;;0.10;0.10;;;20.90;99.90;;;;;;5054455;28;20032;-74
2021/07/06 06:17:05;;;;;;;0.10;0.10;;;21.00;99.90;;;;;;5036797;28;20021;-73
2021/07/06 06:19:30;;;;;;;0.00;0.00;;;21.10;99.90;;;;;;5054262;28;20499;-73
2021/07/06 06:21:57;;;;;;;0.10;0.10;;;21.20;99.90;;;;;;5054204;28;20055;-73
2021/07/06 06:24:22;;;;;;;0.10;0.10;;;21.30;99.90;;;;;;5036418;28;20029;-73
2021/07/06 06:26:49;;;;;;;0.00;0.00;;;21.40;99.90;;;;;;5053599;28;20021;-73
2021/07/06 06:29:18;;;;;;;0.10;0.10;;;21.60;99.90;;;;;;5053829;28;20032;-74
2021/07/06 06:31:45;;;;;;;0.10;0.10;;;21.70;99.90;;;;;;5035923;28;20112;-73
2021/07/06 06:34:11;;;;;;;0.10;0.10;;;21.80;99.90;;;;;;5035981;28;20036;-73
2021/07/06 06:36:37;;;;;;;0.00;0.00;;;21.90;98.80;;;;;;5050124;28;20059;-74
2021/07/06 06:39:06;;;;;;;0.00;0.00;;;22.00;97.80;;;;;;5052380;28;20063;-73
2021/07/06 06:41:33;;;;;;;0.00;0.00;;;22.20;98.80;;;;;;5051509;28;20020;-73
2021/07/06 06:43:58;;;;;;;0.00;0.00;;;22.20;98.00;;;;;;5053688;28;20025;-73
2021/07/06 06:46:26;;;;;;;0.00;0.00;;;22.30;98.40;;;;;;5052958;28;20362;-73
2021/07/06 06:48:52;;;;;;;0.10;0.10;;;22.50;98.00;;;;;;5053412;28;20028;-74
2021/07/06 06:51:18;;;;;;;0.08;0.08;;;22.50;96.40;;;;;;5051639;28;20083;-73
2021/07/06 06:53:43;;;;;;;0.10;0.10;;;22.40;96.10;;;;;;5033332;28;20017;-74
2021/07/06 06:56:09;;;;;;;0.30;0.30;;;22.40;95.00;;;;;;5052919;28;20024;-73
2021/07/06 06:58:35;;;;;;;0.00;0.00;;;22.50;94.20;;;;;;5053295;28;20103;-73
2021/07/06 07:01:01;;;;;;;0.00;0.00;;;22.60;92.50;;;;;;5051569;28;20052;-76
2021/07/06 07:03:26;;;;;;;0.10;0.10;;;22.70;92.40;;;;;;5053321;28;20102;-75
2021/07/06 07:05:53;;;;;;;0.00;0.00;;;22.80;93.70;;;;;;5034201;28;20047;-76
2021/07/06 07:08:19;;;;;;;0.00;0.00;;;22.90;94.40;;;;;;5052169;28;20033;-76
2021/07/06 07:10:47;;;;;;;4.85;0.40;;;23.10;93.10;;;;;;5018382;28;20025;-76
2021/07/06 07:13:13;;;;;;;0.10;0.10;;;23.20;93.60;;;;;;5035312;28;20022;-76
2021/07/06 07:15:39;;;;;;;0.10;0.10;;;23.20;94.00;;;;;;5033015;28;20022;-75
2021/07/06 07:18:05;;;;;;;0.10;0.10;;;23.20;94.70;;;;;;5032300;28;20040;-76
2021/07/06 07:20:32;;;;;;;0.05;0.05;;;23.30;95.20;;;;;;5035203;28;20108;-75
2021/07/06 07:22:58;;;;;;;0.00;0.00;;;23.40;95.30;;;;;;5052331;28;20028;-75
2021/07/06 07:25:23;;;;;;;0.17;0.17;;;23.50;95.10;;;;;;5045127;28;20606;-75
2021/07/06 07:27:50;;;;;;;0.08;0.08;;;23.60;93.80;;;;;;5050764;28;20025;-76
2021/07/06 07:30:17;;;;;;;0.00;0.00;;;23.70;94.20;;;;;;5051449;28;20029;-76
2021/07/06 07:32:45;;;;;;;0.00;0.00;;;23.70;93.80;;;;;;5051701;28;20496;-75
2021/07/06 07:35:11;;;;;;;0.00;0.00;;;23.70;93.10;;;;;;5052831;28;20057;-75
2021/07/06 07:37:37;;;;;;;0.00;0.00;;;23.80;92.20;;;;;;5042367;28;20476;-75
2021/07/06 07:40:04;;;;;;;0.00;0.00;;;23.70;93.20;;;;;;5033821;28;20108;-75
2021/07/06 07:42:31;;;;;;;2.08;0.40;;;23.80;93.30;;;;;;5051742;28;20087;-75
2021/07/06 07:44:56;;;;;;;0.00;0.00;;;23.90;92.50;;;;;;5052417;28;20060;-75
2021/07/06 07:47:22;;;;;;;0.45;0.43;;;23.90;93.00;;;;;;5051550;28;20059;-75
2021/07/06 07:49:49;;;;;;;0.10;0.10;;;24.00;92.30;;;;;;5052625;28;20025;-75
2021/07/06 07:52:15;;;;;;;0.65;0.65;;;24.10;91.10;;;;;;5047206;28;20029;-75
2021/07/06 07:54:40;;;;;;;0.00;0.00;;;24.10;92.00;;;;;;5052127;28;20043;-75
2021/07/06 07:57:10;;;;;;;0.47;0.25;;;24.00;92.10;;;;;;5034906;28;20029;-75
2021/07/06 07:59:37;;;;;;;0.00;0.00;;;24.20;91.90;;;;;;5052015;28;20442;-75
2021/07/06 08:02:03;;;;;;;0.03;0.03;;;24.40;91.80;;;;;;5051158;28;20032;-75
2021/07/06 08:04:28;;;;;;;0.10;0.10;;;24.40;89.50;;;;;;5034178;28;20075;-75
2021/07/06 08:06:54;;;;;;;0.32;0.32;;;24.70;87.90;;;;;;5051062;28;20021;-75
2021/07/06 08:09:20;;;;;;;0.00;0.00;;;24.90;87.10;;;;;;5052138;28;20052;-75
2021/07/06 08:11:46;;;;;;;0.10;0.10;;;25.10;85.40;;;;;;5051818;28;20025;-75
2021/07/06 08:14:12;;;;;;;0.20;0.20;;;25.10;83.60;;;;;;5050027;28;20036;-76
2021/07/06 08:16:38;;;;;;;0.10;0.10;;;25.20;82.90;;;;;;5051912;28;20025;-75
2021/07/06 08:19:04;;;;;;;0.10;0.10;;;25.30;82.40;;;;;;5051071;28;20029;-75
2021/07/06 08:21:30;;;;;;;0.47;0.47;;;25.50;82.40;;;;;;5052007;28;20028;-75
2021/07/06 08:23:59;;;;;;;0.10;0.10;;;25.60;80.00;;;;;;5036349;28;20087;-75
2021/07/06 08:26:26;;;;;;;1.25;0.82;;;25.80;78.90;;;;;;5050553;28;20021;-75
2021/07/06 08:28:52;;;;;;;0.22;0.22;;;26.00;80.40;;;;;;5049828;28;20029;-75
2021/07/06 08:31:18;;;;;;;0.08;0.08;;;26.10;80.40;;;;;;5033728;28;20116;-75
2021/07/06 08:33:44;;;;;;;0.00;0.00;;;26.20;78.90;;;;;;5040061;28;20100;-75
2021/07/06 08:36:09;;;;;;;0.00;0.00;;;26.30;77.40;;;;;;5033472;28;20784;-76
2021/07/06 08:38:39;;;;;;;0.30;0.30;;;26.50;76.80;;;;;;5016411;28;20120;-75
2021/07/06 08:41:06;;;;;;;0.38;0.20;;;26.60;74.00;;;;;;5033235;28;20045;-75
2021/07/06 08:43:32;;;;;;;0.00;0.00;;;26.70;74.80;;;;;;5023460;28;20060;-76
2021/07/06 08:46:03;;;;;;;0.00;0.00;;;26.90;74.90;;;;;;5051709;28;20104;-77
2021/07/06 08:48:32;;;;;;;0.00;0.00;;;26.90;73.60;;;;;;5051724;28;20021;-76
2021/07/06 08:50:59;;;;;;;0.00;0.00;;;26.90;72.90;;;;;;5019526;28;20075;-75
2021/07/06 08:53:28;;;;;;;0.00;0.00;;;27.10;73.30;;;;;;5042092;28;20029;-76
2021/07/06 08:55:54;;;;;;;0.00;0.00;;;27.40;73.60;;;;;;5055763;28;20052;-76
2021/07/06 08:58:20;;;;;;;0.00;0.00;;;27.80;72.80;;;;;;5054954;28;20083;-76
2021/07/06 09:00:46;;;;;;;0.28;0.28;;;28.00;70.70;;;;;;5045310;28;20025;-76
2021/07/06 09:03:11;;;;;;;0.30;0.30;;;28.10;68.00;;;;;;5054615;28;20032;-76
2021/07/06 09:05:38;;;;;;;0.00;0.00;;;27.90;67.80;;;;;;5055181;28;20108;-75
2021/07/06 09:08:06;;;;;;;0.20;0.20;;;28.10;67.60;;;;;;5053803;28;20416;-76
2021/07/06 09:10:39;;;;;;;0.00;0.00;;;28.40;65.30;;;;;;5031817;28;20036;-76
2021/07/06 09:13:37;;;;;;;0.00;0.00;;;28.60;66.60;;;;;;5053786;28;20045;-76
2021/07/06 09:16:03;;;;;;;0.40;0.20;;;28.90;64.80;;;;;;4976843;28;20033;-75
2021/07/06 09:18:31;;;;;;;0.10;0.10;;;28.90;63.80;;;;;;5039412;28;20472;-75
2021/07/06 09:21:09;;;;;;;0.00;0.00;;;29.00;63.00;;;;;;5038540;28;20611;-75
2021/07/06 09:23:41;;;;;;;0.00;0.00;;;29.20;63.40;;;;;;5053939;28;20488;-75
2021/07/06 09:26:09;;;;;;;0.08;0.08;;;29.20;63.50;;;;;;5048325;28;20083;-75
2021/07/06 09:28:46;;;;;;;0.00;0.00;;;29.30;62.10;;;;;;5053919;28;20032;-75
2021/07/06 09:31:19;;;;;;;0.00;0.00;;;29.50;61.70;;;;;;5041291;28;20025;-75
2021/07/06 09:33:50;;;;;;;0.40;0.32;;;29.80;61.70;;;;;;5053692;28;20127;-75
2021/07/06 09:36:33;;;;;;;0.10;0.10;;;29.90;61.50;;;;;;5054243;28;20025;-75
2021/07/06 09:39:09;;;;;;;0.08;0.08;;;30.00;60.50;;;;;;5029807;28;20480;-75
2021/07/06 09:41:36;;;;;;;0.00;0.00;;;30.20;60.70;;;;;;5050812;28;20024;-75
2021/07/06 09:44:26;;;;;;;0.13;0.10;;;30.20;61.20;;;;;;5040752;28;20108;-75
2021/07/06 09:47:13;;;;;;;0.13;0.13;;;30.20;60.20;;;;;;5050461;28;20017;-75
2021/07/06 09:49:43;;;;;;;0.40;0.30;;;30.20;59.60;;;;;;5048910;28;20104;-75
2021/07/06 09:52:09;;;;;;;0.15;0.15;;;30.50;60.40;;;;;;5053884;28;20178;-75
2021/07/06 09:54:46;;;;;;;0.00;0.00;;;30.80;58.50;;;;;;5044810;28;20029;-75
2021/07/06 10:00:05;;;;;;;0.00;0.00;;;31.00;58.20;;;;;;5053155;28;20025;-76
2021/07/06 10:02:32;;;;;;;0.22;0.22;;;31.00;58.00;;;;;;5047903;28;20031;-73
2021/07/06 10:05:03;;;;;;;0.00;0.00;;;31.20;57.50;;;;;;5026780;28;20021;-73
2021/07/06 10:07:30;;;;;;;0.10;0.10;;;31.30;58.10;;;;;;5052802;28;20032;-73
2021/07/06 10:09:57;;;;;;;0.00;0.00;;;31.50;56.50;;;;;;5038875;28;20082;-73
2021/07/06 10:12:24;;;;;;;0.00;0.00;;;31.60;55.60;;;;;;5052082;28;20115;-73
2021/07/06 10:14:51;;;;;;;0.00;0.00;;;31.40;55.90;;;;;;5052339;28;20648;-73
2021/07/06 10:17:17;;;;;;;0.00;0.00;;;31.50;55.20;;;;;;5052634;28;20472;-73
2021/07/06 10:19:45;;;;;;;0.00;0.00;;;31.70;55.80;;;;;;5040100;28;20025;-72
2021/07/06 10:22:13;;;;;;;0.00;0.00;;;31.40;54.50;;;;;;5039334;28;20029;-72
2021/07/06 10:24:40;;;;;;;0.20;0.10;;;31.30;54.90;;;;;;5051834;28;20052;-72
2021/07/06 10:27:08;;;;;;;0.00;0.00;;;31.30;54.40;;;;;;5045661;28;20381;-72
2021/07/06 10:29:36;;;;;;;0.00;0.00;;;31.30;55.30;;;;;;5051826;28;20532;-72
2021/07/06 10:32:04;;;;;;;0.20;0.20;;;31.50;53.80;;;;;;5045715;28;20048;-72
2021/07/06 10:34:40;;;;;;;0.00;0.00;;;31.50;52.90;;;;;;5051570;28;20095;-72
2021/07/06 10:37:27;;;;;;;0.10;0.10;;;31.60;53.50;;;;;;5052536;28;20489;-72
2021/07/06 10:39:53;;;;;;;0.00;0.00;;;31.80;52.60;;;;;;5047545;28;20029;-72
2021/07/06 10:42:19;;;;;;;0.00;0.00;;;31.90;51.30;;;;;;5051833;28;20216;-72
2021/07/06 10:44:44;;;;;;;0.03;0.03;;;32.00;51.70;;;;;;5051547;28;20029;-72
2021/07/06 10:47:37;;;;;;;0.17;0.17;;;32.00;51.10;;;;;;5039106;28;20090;-72
2021/07/06 10:50:31;;;;;;;3.50;2.72;;;31.90;50.80;;;;;;5048521;28;20079;-72
2021/07/06 10:53:15;;;;;;;0.03;0.03;;;31.80;51.70;;;;;;5051001;28;20072;-72
2021/07/06 10:55:43;;;;;;;0.00;0.00;;;31.60;51.70;;;;;;5038786;28;20126;-72
2021/07/06 10:58:09;;;;;;;0.05;0.05;;;31.70;51.60;;;;;;5034676;28;20481;-74
2021/07/06 11:00:42;;;;;;;0.00;0.00;;;32.00;51.80;;;;;;5051634;28;20075;-72
2021/07/06 11:03:16;;;;;;;0.20;0.17;;;32.10;52.10;;;;;;5044008;28;20040;-72
2021/07/06 11:05:42;;;;;;;0.00;0.00;;;32.10;51.40;;;;;;5047435;28;20055;-72
2021/07/06 11:08:28;;;;;;;0.00;0.00;;;32.00;51.80;;;;;;5050768;28;20066;-72
2021/07/06 11:10:54;;;;;;;1.30;0.57;;;32.20;51.80;;;;;;5045809;28;20435;-72
2021/07/06 11:13:21;;;;;;;0.00;0.00;;;32.40;50.50;;;;;;5051382;28;20029;-72
2021/07/06 11:15:48;;;;;;;0.20;0.10;;;32.30;49.60;;;;;;5051281;28;20017;-73
2021/07/06 11:18:15;;;;;;;0.00;0.00;;;32.40;50.50;;;;;;5051713;28;20032;-72
2021/07/06 11:20:47;;;;;;;0.08;0.08;;;32.40;50.60;;;;;;5050462;28;20104;-72
2021/07/06 11:23:17;;;;;;;0.10;0.10;;;32.50;50.00;;;;;;5051519;28;20025;-72
2021/07/06 11:25:44;;;;;;;0.10;0.10;;;32.50;50.00;;;;;;5050855;28;20551;-71
2021/07/06 11:28:26;;;;;;;0.00;0.00;;;32.30;49.40;;;;;;5050845;28;20480;-71
2021/07/06 11:30:54;;;;;;;0.38;0.30;;;32.30;50.00;;;;;;5039264;28;20123;-71
2021/07/06 11:33:32;;;;;;;0.00;0.00;;;32.40;50.00;;;;;;5051570;28;20017;-71
2021/07/06 11:36:04;;;;;;;0.00;0.00;;;32.40;49.90;;;;;;5032905;28;20064;-71
2021/07/06 11:38:37;;;;;;;0.00;0.00;;;32.50;49.40;;;;;;5050384;28;20033;-71
2021/07/06 11:41:05;;;;;;;0.00;0.00;;;32.50;49.40;;;;;;5050776;28;20021;-72
2021/07/06 11:43:32;;;;;;;0.00;0.00;;;32.20;49.20;;;;;;5050680;28;20395;-71
2021/07/06 11:46:04;;;;;;;0.00;0.00;;;32.30;49.60;;;;;;5050004;28;20052;-71
2021/07/06 11:48:37;;;;;;;0.00;0.00;;;32.30;49.50;;;;;;5040053;28;20037;-72
2021/07/06 11:51:06;;;;;;;0.00;0.00;;;32.30;48.50;;;;;;5048834;28;20025;-71
2021/07/06 11:53:37;;;;;;;0.00;0.00;;;32.10;49.20;;;;;;5045727;28;20032;-71
2021/07/06 11:56:05;;;;;;;0.00;0.00;;;32.00;49.70;;;;;;5049884;28;20033;-72
2021/07/06 11:58:32;;;;;;;0.13;0.13;;;31.70;51.40;;;;;;5050650;28;20021;-72
2021/07/06 12:00:59;;;;;;;0.17;0.17;;;31.80;52.40;;;;;;5050159;28;20128;-74
2021/07/06 12:03:30;;;;;;;1.17;0.47;;;31.80;52.50;;;;;;5045498;28;20068;-74
2021/07/06 12:05:59;;;;;;;0.00;0.00;;;31.80;52.20;;;;;;5032074;28;20071;-75
2021/07/06 12:08:27;;;;;;;0.00;0.00;;;31.80;51.40;;;;;;5050729;28;20484;-74
2021/07/06 12:11:00;;;;;;;0.00;0.00;;;31.70;51.50;;;;;;5043745;28;20031;-74
2021/07/06 12:13:44;;;;;;;0.85;0.85;;;31.80;52.70;;;;;;5024691;28;20067;-74
2021/07/06 12:16:19;;;;;;;0.00;0.00;;;31.70;52.70;;;;;;5049821;28;20435;-74
2021/07/06 12:19:07;;;;;;;0.00;0.00;;;31.40;52.40;;;;;;5032260;28;20501;-72
2021/07/06 12:21:42;;;;;;;0.30;0.20;;;31.40;52.50;;;;;;5049757;28;20025;-72
2021/07/06 12:24:10;;;;;;;0.08;0.08;;;31.30;50.10;;;;;;5021590;28;20512;-73
2021/07/06 12:26:38;;;;;;;0.10;0.10;;;31.20;49.70;;;;;;5048616;28;20017;-73
2021/07/06 12:29:04;;;;;;;0.00;0.00;;;31.40;49.20;;;;;;5049662;28;20028;-73
2021/07/06 12:31:32;;;;;;;0.00;0.00;;;31.40;51.40;;;;;;5049304;28;20021;-73
2021/07/06 12:33:58;;;;;;;0.10;0.10;;;31.10;52.20;;;;;;5040761;28;20025;-73
2021/07/06 12:36:34;;;;;;;0.15;0.13;;;30.90;51.50;;;;;;5049910;28;20036;-73
2021/07/06 12:39:18;;;;;;;0.00;0.00;;;30.90;52.10;;;;;;5043567;28;20564;-73
2021/07/06 12:41:52;;;;;;;0.00;0.00;;;30.90;48.90;;;;;;5037253;28;20047;-73
2021/07/06 12:44:33;;;;;;;0.00;0.00;;;31.20;46.60;;;;;;5050272;28;20052;-72
2021/07/06 12:47:14;;;;;;;0.00;0.00;;;31.30;46.40;;;;;;5049838;28;20032;-72
2021/07/06 12:49:47;;;;;;;0.00;0.00;;;31.40;45.10;;;;;;5040921;28;20029;-73
2021/07/06 12:52:13;;;;;;;0.00;0.00;;;31.50;44.60;;;;;;5041197;28;20183;-73
2021/07/06 12:54:40;;;;;;;0.00;0.00;;;31.70;45.10;;;;;;5050067;28;20103;-73
2021/07/06 12:57:10;;;;;;;0.00;0.00;;;31.70;41.80;;;;;;5049044;28;20090;-73
2021/07/06 12:59:36;;;;;;;0.00;0.00;;;31.80;39.70;;;;;;5050806;28;20035;-73